This is the latest recevied weather packets stored in our database for station/object KC5CAM-13. If no packets are shown the sender has not sent any weather packets the latest 10 day(s).
| Time | Temp. | Humidity | Pressure | Rain* | Wind** | Luminosity | Snow |
|---|---|---|---|---|---|---|---|
| 1777506314 | 17.22° C | 79% | 1014.5 hPa | 0 mm | - | 17 W/m² | - |
| 1777506010 | 17.22° C | 79% | 1014.3 hPa | 0 mm | - | 23 W/m² | - |
| 1777505705 | 17.22° C | 79% | 1014.4 hPa | 0 mm | - | 28 W/m² | - |
| 1777505403 | 17.22° C | 78% | 1014.4 hPa | 0 mm | - | 23 W/m² | - |
| 1777505099 | 17.22° C | 78% | 1014.3 hPa | 0 mm | - | 36 W/m² | - |
| 1777504796 | 17.22° C | 78% | 1014.1 hPa | 0 mm | - | 69 W/m² | - |
| 1777504494 | 17.22° C | 79% | 1014.5 hPa | 0 mm | - | 23 W/m² | - |
| 1777504189 | 17.22° C | 80% | 1014.1 hPa | 0 mm | - | 60 W/m² | - |
| 1777503885 | 17.22° C | 79% | 1014.7 hPa | 0 mm | - | 46 W/m² | - |
| 1777503581 | 16.67° C | 80% | 1014.7 hPa | 0 mm | - | 32 W/m² | - |
| 1777503279 | 16.67° C | 79% | 1014.8 hPa | 0 mm | - | 26 W/m² | - |
| 1777502974 | 16.67° C | 80% | 1014.3 hPa | 0 mm | - | 26 W/m² | - |
| 1777502672 | 16.67° C | 79% | 1014.6 hPa | 0 mm | - | 29 W/m² | - |
| 1777502369 | 16.67° C | 79% | 1015 hPa | 0 mm | - | 22 W/m² | - |
| 1777502066 | 16.67° C | 79% | 1015.1 hPa | 0 mm | - | 26 W/m² | - |
| 1777501762 | 16.67° C | 79% | 1015.1 hPa | 0 mm | - | 24 W/m² | - |
| 1777501460 | 16.67° C | 79% | 1014.7 hPa | 0 mm | - | 43 W/m² | - |
| 1777501157 | 16.67° C | 79% | 1014.4 hPa | 0 mm | - | 58 W/m² | - |
| 1777500855 | 16.67° C | 78% | 1014.4 hPa | 0 mm | - | 61 W/m² | - |
| 1777500552 | 16.67° C | 79% | 1014.7 hPa | 0 mm | - | 42 W/m² | - |
| 1777500249 | 16.67° C | 79% | 1014.4 hPa | 0 mm | - | 56 W/m² | - |
| 1777499945 | 16.67° C | 79% | 1014.1 hPa | 0 mm | - | 79 W/m² | - |
| 1777499642 | 16.67° C | 80% | 1014.2 hPa | 0 mm | - | 65 W/m² | - |
| 1777499339 | 16.67° C | 80% | 1014.4 hPa | 0 mm | - | 53 W/m² | - |
| 1777499036 | 16.67° C | 80% | 1014.3 hPa | 0 mm | - | 58 W/m² | - |
* Rain latest hour (hover to see other rain measurements)
** Current wind speed in m/s (hover to see current wind gust speed)